Time;durP1;ratioP1;P1;durP2;ratioP2;P2;SDS_P1;SDS_P2;PMS_P1;PMS_P2;Temp;Humidity;BMP_temperature;BMP_pressure;BME280_temperature;BME280_humidity;BME280_pressure;Samples;Min_cycle;Max_cycle;Signal;HPM_P1;HPM_P2
2021/04/10 00:01:55;;;;;;;5.07;4.60;;;11.00;68.00;;;;;;4927065;29;20214;-66
2021/04/10 00:04:22;;;;;;;5.85;5.03;;;10.90;68.00;;;;;;4928120;29;20206;-66
2021/04/10 00:06:48;;;;;;;6.68;5.30;;;10.90;68.70;;;;;;4920005;29;20202;-66
2021/04/10 00:09:14;;;;;;;7.82;5.72;;;10.70;68.90;;;;;;4910095;29;20329;-66
2021/04/10 00:11:41;;;;;;;6.43;5.30;;;10.70;69.00;;;;;;4910333;29;20214;-67
2021/04/10 00:14:08;;;;;;;4.32;4.03;;;10.80;69.60;;;;;;4915235;29;20206;-67
2021/04/10 00:16:35;;;;;;;5.28;4.88;;;10.80;69.40;;;;;;4928679;29;20206;-67
2021/04/10 00:19:02;;;;;;;6.25;5.15;;;10.80;69.90;;;;;;4928554;29;20240;-67
2021/04/10 00:21:29;;;;;;;8.38;6.45;;;10.70;69.20;;;;;;4929146;29;20210;-67
2021/04/10 00:23:56;;;;;;;6.75;5.70;;;10.80;68.90;;;;;;4929158;29;20205;-67
2021/04/10 00:26:23;;;;;;;7.15;6.40;;;10.70;69.70;;;;;;4931223;29;20264;-67
2021/04/10 00:28:49;;;;;;;10.57;7.75;;;10.70;69.10;;;;;;4933823;29;20241;-67
2021/04/10 00:31:16;;;;;;;7.15;6.45;;;10.70;68.80;;;;;;4931341;29;20305;-67
2021/04/10 00:33:43;;;;;;;7.38;6.50;;;10.80;68.50;;;;;;4932278;29;20200;-67
2021/04/10 00:36:11;;;;;;;9.80;6.75;;;10.70;68.60;;;;;;4931249;29;20216;-69
2021/04/10 00:38:39;;;;;;;6.50;5.90;;;10.70;68.90;;;;;;4932506;29;20212;-67
2021/04/10 00:41:08;;;;;;;6.78;5.75;;;10.70;68.80;;;;;;4932151;29;21018;-67
2021/04/10 00:43:34;;;;;;;6.85;5.88;;;10.80;69.00;;;;;;4931678;29;20229;-66
2021/04/10 00:46:01;;;;;;;5.43;4.93;;;10.60;69.80;;;;;;4931207;29;20213;-67
2021/04/10 00:48:27;;;;;;;5.68;5.15;;;10.50;69.80;;;;;;4931760;29;20372;-67
2021/04/10 00:50:55;;;;;;;5.40;4.75;;;10.50;69.20;;;;;;4931740;29;20685;-66
2021/04/10 00:53:24;;;;;;;4.80;4.03;;;10.50;69.50;;;;;;4931758;29;20620;-66
2021/04/10 00:55:53;;;;;;;4.70;4.30;;;10.50;69.60;;;;;;4931052;29;20229;-67
2021/04/10 00:58:19;;;;;;;4.10;3.60;;;10.70;69.40;;;;;;4931634;29;20365;-66
2021/04/10 01:00:46;;;;;;;3.55;3.30;;;10.90;69.00;;;;;;4931606;29;20220;-66
2021/04/10 01:03:12;;;;;;;2.78;2.58;;;11.20;67.10;;;;;;4931757;29;20217;-66
2021/04/10 01:05:39;;;;;;;3.65;3.35;;;11.20;67.30;;;;;;4930296;29;20216;-70
2021/04/10 01:08:05;;;;;;;3.25;3.00;;;11.30;67.30;;;;;;4931136;29;20293;-67
2021/04/10 01:10:33;;;;;;;2.72;2.53;;;11.40;66.70;;;;;;4931489;29;20209;-67
2021/04/10 01:13:07;;;;;;;3.38;3.15;;;11.50;66.60;;;;;;4931241;29;20214;-66
2021/04/10 01:15:44;;;;;;;3.30;3.03;;;11.60;66.10;;;;;;4929938;29;20268;-67
2021/04/10 01:18:15;;;;;;;4.22;3.22;;;11.50;65.80;;;;;;4931525;29;20237;-67
2021/04/10 01:21:11;;;;;;;2.65;2.45;;;11.60;66.10;;;;;;4931728;29;20198;-67
2021/04/10 01:24:22;;;;;;;4.43;3.00;;;11.60;66.30;;;;;;4889295;29;20301;-66
2021/04/10 01:27:13;;;;;;;5.65;2.70;;;11.50;66.60;;;;;;4912576;29;20546;-67
2021/04/10 01:29:44;;;;;;;7.63;2.85;;;11.60;66.50;;;;;;4912579;29;20222;-67
2021/04/10 01:32:13;;;;;;;3.53;2.97;;;11.50;66.40;;;;;;4911993;29;20290;-67
2021/04/10 01:34:44;;;;;;;3.92;2.97;;;11.50;66.20;;;;;;4929526;29;20206;-67
2021/04/10 01:37:15;;;;;;;3.70;2.45;;;11.60;67.00;;;;;;4931407;29;20667;-67
2021/04/10 01:39:43;;;;;;;4.75;2.80;;;11.50;66.70;;;;;;4913274;29;20210;-67
2021/04/10 01:42:12;;;;;;;3.08;2.78;;;11.40;66.60;;;;;;4912315;29;20618;-67
2021/04/10 01:44:39;;;;;;;4.88;3.80;;;11.40;67.30;;;;;;4929479;29;20214;-67
2021/04/10 01:47:11;;;;;;;3.95;3.15;;;11.50;67.60;;;;;;4930908;29;20220;-66
2021/04/10 01:49:38;;;;;;;4.38;2.72;;;11.50;67.30;;;;;;4931152;29;20240;-67
2021/04/10 01:52:05;;;;;;;3.50;3.20;;;11.50;67.80;;;;;;4930739;29;20281;-67
2021/04/10 01:54:32;;;;;;;7.13;3.40;;;11.50;67.30;;;;;;4929608;29;20205;-67
2021/04/10 01:57:00;;;;;;;3.92;3.53;;;11.40;67.40;;;;;;4930120;29;20296;-67
2021/04/10 01:59:27;;;;;;;3.65;2.72;;;11.40;68.00;;;;;;4930761;29;20225;-67
2021/04/10 02:01:55;;;;;;;4.72;3.35;;;11.30;68.70;;;;;;4930558;29;20312;-67
2021/04/10 02:04:23;;;;;;;2.10;2.00;;;11.30;68.70;;;;;;4929441;29;20217;-67
2021/04/10 02:06:51;;;;;;;1.92;1.83;;;11.30;68.40;;;;;;4930986;29;20212;-66
2021/04/10 02:09:18;;;;;;;2.80;2.00;;;11.20;69.00;;;;;;4930620;29;20237;-67
2021/04/10 02:11:49;;;;;;;2.10;1.75;;;11.20;68.50;;;;;;4931263;29;20206;-67
2021/04/10 02:14:16;;;;;;;3.90;2.55;;;11.20;68.70;;;;;;4929211;29;20284;-66
2021/04/10 02:16:43;;;;;;;2.00;1.90;;;11.10;69.00;;;;;;4930102;29;20213;-67
2021/04/10 02:19:10;;;;;;;3.72;1.85;;;11.20;68.80;;;;;;4929922;29;20284;-67
2021/04/10 02:21:38;;;;;;;2.92;2.35;;;11.10;69.30;;;;;;4930523;29;20232;-68
2021/04/10 02:24:05;;;;;;;3.03;2.10;;;11.10;69.20;;;;;;4929172;29;20280;-68
2021/04/10 02:26:32;;;;;;;3.85;2.20;;;11.10;69.60;;;;;;4930309;29;20214;-68
2021/04/10 02:28:59;;;;;;;2.83;2.50;;;10.90;70.40;;;;;;4930218;29;20237;-68
2021/04/10 02:31:31;;;;;;;4.22;2.67;;;10.90;70.20;;;;;;4929639;29;20293;-68
2021/04/10 02:34:04;;;;;;;3.22;2.70;;;11.00;70.00;;;;;;4929754;29;20206;-67
2021/04/10 02:36:32;;;;;;;2.88;2.33;;;11.00;69.40;;;;;;4929904;29;20233;-68
2021/04/10 02:39:00;;;;;;;3.08;2.60;;;11.20;69.00;;;;;;4929489;29;20587;-67
2021/04/10 02:41:27;;;;;;;3.25;3.00;;;11.10;69.50;;;;;;4930056;29;20202;-68
2021/04/10 02:43:58;;;;;;;3.05;2.85;;;11.00;69.00;;;;;;4928779;29;20272;-68
2021/04/10 02:46:27;;;;;;;5.07;3.10;;;11.00;68.60;;;;;;4929361;29;20212;-68
2021/04/10 02:48:59;;;;;;;3.88;3.17;;;11.10;68.80;;;;;;4921445;29;20240;-67
2021/04/10 02:51:31;;;;;;;5.70;3.17;;;11.10;69.40;;;;;;4929758;29;20300;-68
2021/04/10 02:53:58;;;;;;;2.70;2.50;;;11.00;69.00;;;;;;4928767;29;20225;-68
2021/04/10 02:56:29;;;;;;;3.10;2.80;;;11.10;68.80;;;;;;4929941;29;20202;-68
2021/04/10 02:58:59;;;;;;;5.70;2.83;;;11.10;68.90;;;;;;4929282;29;20220;-68
2021/04/10 03:01:25;;;;;;;2.70;2.33;;;11.20;69.30;;;;;;4929157;29;20273;-68
2021/04/10 03:03:52;;;;;;;2.90;2.60;;;11.10;69.30;;;;;;4929184;29;20588;-69
2021/04/10 03:06:19;;;;;;;2.60;2.40;;;11.00;69.00;;;;;;4929340;29;20221;-68
2021/04/10 03:08:47;;;;;;;2.97;2.67;;;11.10;69.10;;;;;;4929541;29;20239;-68
2021/04/10 03:11:15;;;;;;;2.75;2.55;;;11.20;68.70;;;;;;4929072;29;20205;-68
2021/04/10 03:13:42;;;;;;;2.75;2.55;;;11.10;68.90;;;;;;4929561;29;20213;-68
2021/04/10 03:16:09;;;;;;;3.28;2.97;;;11.20;68.80;;;;;;4928677;29;20205;-67
2021/04/10 03:18:38;;;;;;;4.70;2.53;;;11.20;69.30;;;;;;4928825;29;20233;-68
2021/04/10 03:21:05;;;;;;;5.32;2.50;;;11.10;70.00;;;;;;4929223;29;20906;-67
2021/04/10 03:23:31;;;;;;;2.83;2.63;;;11.10;69.60;;;;;;4924655;29;20268;-67
2021/04/10 03:25:58;;;;;;;2.92;2.50;;;11.10;70.20;;;;;;4929186;29;20213;-68
2021/04/10 03:28:28;;;;;;;5.20;2.55;;;11.10;70.50;;;;;;4929527;29;20627;-68
2021/04/10 03:30:56;;;;;;;2.47;2.30;;;11.10;71.00;;;;;;4929361;29;20236;-67
2021/04/10 03:33:23;;;;;;;3.88;2.00;;;11.00;71.80;;;;;;4929329;29;20562;-67
2021/04/10 03:35:50;;;;;;;4.75;2.45;;;11.10;71.50;;;;;;4929139;29;20216;-67
2021/04/10 03:38:17;;;;;;;2.92;2.65;;;11.10;71.80;;;;;;4923896;29;20203;-67
2021/04/10 03:40:43;;;;;;;2.15;1.95;;;11.20;72.00;;;;;;4919847;29;20560;-68
2021/04/10 03:43:09;;;;;;;2.30;2.10;;;11.20;72.30;;;;;;4929471;29;20289;-68
2021/04/10 03:45:36;;;;;;;1.70;1.60;;;11.20;72.10;;;;;;4928495;29;20320;-68
2021/04/10 03:48:04;;;;;;;2.50;2.30;;;11.20;72.40;;;;;;4928526;29;20206;-68
2021/04/10 03:50:30;;;;;;;4.45;2.20;;;11.20;72.60;;;;;;4929085;29;20225;-68
2021/04/10 03:52:56;;;;;;;1.90;1.80;;;11.30;72.70;;;;;;4928523;29;20676;-68
2021/04/10 03:55:22;;;;;;;2.90;2.70;;;11.30;72.90;;;;;;4929097;29;20205;-68
2021/04/10 03:57:49;;;;;;;2.97;2.42;;;11.30;73.20;;;;;;4929273;29;20264;-67
2021/04/10 04:00:16;;;;;;;2.40;2.20;;;11.30;73.50;;;;;;4929152;29;20202;-67
2021/04/10 04:02:43;;;;;;;2.03;1.92;;;11.40;73.70;;;;;;4931595;29;20205;-67
2021/04/10 04:05:11;;;;;;;2.40;2.20;;;11.40;74.40;;;;;;4931683;29;20209;-67
2021/04/10 04:07:37;;;;;;;2.42;2.33;;;11.40;74.60;;;;;;4932699;29;20202;-67
2021/04/10 04:10:05;;;;;;;2.60;2.17;;;11.40;74.90;;;;;;4932591;29;20230;-67
2021/04/10 04:12:31;;;;;;;2.67;2.20;;;11.40;74.70;;;;;;4933389;29;20214;-66
2021/04/10 04:14:57;;;;;;;1.75;1.65;;;11.40;74.10;;;;;;4931427;29;20285;-67
2021/04/10 04:17:23;;;;;;;3.03;1.98;;;11.40;74.30;;;;;;4932972;29;20206;-67
2021/04/10 04:19:50;;;;;;;3.00;2.30;;;11.30;74.40;;;;;;4933121;29;20205;-67
2021/04/10 04:22:17;;;;;;;1.70;1.60;;;11.30;73.90;;;;;;4932618;29;20578;-68
2021/04/10 04:24:43;;;;;;;1.85;1.75;;;11.40;73.30;;;;;;4932400;29;20230;-67
2021/04/10 04:27:10;;;;;;;3.10;1.83;;;11.40;73.30;;;;;;4932879;29;20206;-67
2021/04/10 04:29:36;;;;;;;1.90;1.80;;;11.40;73.00;;;;;;4932210;29;20849;-67
2021/04/10 04:32:03;;;;;;;2.30;2.08;;;11.40;73.10;;;;;;4932447;29;20202;-66
2021/04/10 04:34:29;;;;;;;1.88;1.77;;;11.40;73.00;;;;;;4931392;29;20216;-68
2021/04/10 04:36:55;;;;;;;2.33;2.22;;;11.40;73.50;;;;;;4931576;29;20217;-67
2021/04/10 04:39:22;;;;;;;1.83;1.73;;;11.40;74.20;;;;;;4931322;29;20404;-66
2021/04/10 04:41:49;;;;;;;2.53;2.13;;;11.30;74.60;;;;;;4931404;29;20825;-67
2021/04/10 04:44:15;;;;;;;1.92;1.67;;;11.30;75.40;;;;;;4930784;29;20214;-67
2021/04/10 04:46:41;;;;;;;1.65;1.55;;;11.20;76.00;;;;;;4927660;29;20213;-67
2021/04/10 04:49:08;;;;;;;1.80;1.70;;;11.10;76.70;;;;;;4931361;29;20601;-67
2021/04/10 04:51:34;;;;;;;2.80;1.80;;;11.10;77.40;;;;;;4932023;29;20210;-67
2021/04/10 04:54:01;;;;;;;2.22;2.13;;;11.00;77.30;;;;;;4932105;29;20268;-66
2021/04/10 04:56:28;;;;;;;2.10;1.85;;;11.00;77.70;;;;;;4932030;29;20672;-67
2021/04/10 04:58:54;;;;;;;2.08;1.98;;;10.90;77.70;;;;;;4931558;29;20691;-67
2021/04/10 05:01:20;;;;;;;2.20;2.10;;;10.90;77.70;;;;;;4932094;29;20214;-67
2021/04/10 05:03:47;;;;;;;2.00;1.80;;;10.90;77.30;;;;;;4931761;29;20675;-67
2021/04/10 05:06:13;;;;;;;2.83;1.90;;;10.90;77.50;;;;;;4931039;29;20691;-68
2021/04/10 05:08:40;;;;;;;2.85;2.65;;;11.00;77.80;;;;;;4931623;29;20328;-69
2021/04/10 05:11:06;;;;;;;2.80;1.98;;;11.00;78.20;;;;;;4931689;29;20703;-68
2021/04/10 05:13:33;;;;;;;2.40;2.05;;;11.00;78.80;;;;;;4930734;29;20344;-69
2021/04/10 05:15:59;;;;;;;2.13;2.00;;;10.90;79.50;;;;;;4930711;29;20684;-68
2021/04/10 05:18:26;;;;;;;2.10;2.00;;;10.90;80.20;;;;;;4931131;29;20269;-68
2021/04/10 05:20:52;;;;;;;4.28;2.75;;;10.80;81.30;;;;;;4931491;29;20297;-69
2021/04/10 05:23:22;;;;;;;2.17;1.83;;;10.80;84.20;;;;;;4929887;29;20208;-67
2021/04/10 05:25:49;;;;;;;2.20;2.10;;;10.70;86.30;;;;;;4911989;29;20228;-66
2021/04/10 05:28:16;;;;;;;2.30;2.08;;;10.50;88.00;;;;;;4919466;29;20537;-67
2021/04/10 05:30:43;;;;;;;2.80;2.60;;;10.50;90.00;;;;;;4931893;29;20231;-68
2021/04/10 05:33:10;;;;;;;2.20;2.10;;;10.30;91.30;;;;;;4931299;29;20648;-68
2021/04/10 05:35:37;;;;;;;2.92;2.30;;;10.10;91.90;;;;;;4930665;29;20229;-67
2021/04/10 05:38:04;;;;;;;5.85;2.28;;;10.10;92.50;;;;;;4930176;29;20704;-68
2021/04/10 05:40:30;;;;;;;3.67;2.50;;;10.00;92.30;;;;;;4923397;29;20206;-67
2021/04/10 05:42:57;;;;;;;2.10;2.00;;;10.00;92.80;;;;;;4931189;29;20330;-67
2021/04/10 05:45:24;;;;;;;3.08;2.55;;;9.90;93.20;;;;;;4922238;29;20207;-67
2021/04/10 05:47:51;;;;;;;3.05;2.28;;;10.00;92.70;;;;;;4929922;29;20257;-67
2021/04/10 05:50:19;;;;;;;2.85;2.00;;;9.90;93.40;;;;;;4930246;29;20328;-67
2021/04/10 05:52:47;;;;;;;2.50;2.30;;;10.00;93.00;;;;;;4930902;29;20743;-68
2021/04/10 05:55:14;;;;;;;1.95;1.85;;;10.00;93.00;;;;;;4922391;29;20806;-68
2021/04/10 05:57:40;;;;;;;2.70;2.50;;;10.00;93.10;;;;;;4927090;29;20205;-70
2021/04/10 06:00:07;;;;;;;2.53;2.33;;;10.00;93.30;;;;;;4919129;29;20313;-69
2021/04/10 06:02:34;;;;;;;2.72;2.50;;;10.00;93.30;;;;;;4927863;29;20226;-70
2021/04/10 06:05:01;;;;;;;3.42;2.10;;;10.00;93.30;;;;;;4931151;29;20206;-69
2021/04/10 06:07:28;;;;;;;2.80;2.53;;;10.10;93.50;;;;;;4921984;29;20588;-70
2021/04/10 06:09:54;;;;;;;3.20;2.90;;;10.00;93.70;;;;;;4918444;29;20237;-69
2021/04/10 06:12:20;;;;;;;6.65;2.35;;;10.00;93.60;;;;;;4928135;29;20198;-70
2021/04/10 06:14:47;;;;;;;2.45;2.25;;;10.00;93.90;;;;;;4921813;29;20210;-69
2021/04/10 06:17:13;;;;;;;2.28;2.08;;;10.00;93.90;;;;;;4925385;29;20221;-70
2021/04/10 06:19:39;;;;;;;2.88;2.67;;;10.00;94.20;;;;;;4927867;29;20229;-70
2021/04/10 06:22:06;;;;;;;3.13;2.85;;;10.00;94.30;;;;;;4929126;29;20210;-69
2021/04/10 06:24:33;;;;;;;2.60;2.40;;;10.00;94.10;;;;;;4924623;29;20759;-69
2021/04/10 06:26:59;;;;;;;2.22;2.13;;;10.00;94.00;;;;;;4928370;29;20574;-68
2021/04/10 06:29:25;;;;;;;3.00;2.70;;;10.10;93.90;;;;;;4927694;29;20244;-68
2021/04/10 06:31:52;;;;;;;2.55;2.28;;;10.10;94.00;;;;;;4926888;29;20213;-68
2021/04/10 06:34:18;;;;;;;3.97;2.22;;;10.10;93.40;;;;;;4921058;29;20206;-68
2021/04/10 06:36:44;;;;;;;2.60;2.40;;;10.10;93.70;;;;;;4926334;29;20268;-67
2021/04/10 06:39:12;;;;;;;2.55;2.35;;;10.10;93.70;;;;;;4929536;29;20720;-68
2021/04/10 06:41:39;;;;;;;2.60;2.40;;;10.10;93.60;;;;;;4929976;29;20233;-67
2021/04/10 06:44:06;;;;;;;2.78;2.50;;;10.10;93.60;;;;;;4926851;29;20632;-67
2021/04/10 06:46:34;;;;;;;2.40;2.20;;;10.10;93.00;;;;;;4925449;29;20217;-68
2021/04/10 06:49:02;;;;;;;1.92;1.83;;;10.20;93.10;;;;;;4928532;29;20857;-68
2021/04/10 06:51:29;;;;;;;3.15;2.28;;;10.20;93.40;;;;;;4922836;29;20210;-67
2021/04/10 06:53:56;;;;;;;2.30;1.92;;;10.20;93.00;;;;;;4926852;29;20213;-68
2021/04/10 06:56:26;;;;;;;2.40;2.20;;;10.20;92.70;;;;;;4928739;29;20316;-67
2021/04/10 06:59:01;;;;;;;3.28;2.97;;;10.20;92.90;;;;;;4925293;29;20206;-68
2021/04/10 07:01:28;;;;;;;3.17;2.40;;;10.20;92.80;;;;;;4926859;29;20617;-67
2021/04/10 07:03:55;;;;;;;2.30;2.10;;;10.20;92.70;;;;;;4921356;29;20674;-67
2021/04/10 07:06:21;;;;;;;2.97;2.50;;;10.20;92.70;;;;;;4928917;29;20213;-67
2021/04/10 07:08:48;;;;;;;2.17;2.03;;;10.20;92.30;;;;;;4929426;29;20288;-68
2021/04/10 07:11:15;;;;;;;2.88;1.98;;;10.30;92.60;;;;;;4919393;29;20297;-67
2021/04/10 07:13:43;;;;;;;2.17;2.08;;;10.30;92.60;;;;;;4925586;29;20214;-68
2021/04/10 07:16:10;;;;;;;2.60;2.40;;;10.30;93.50;;;;;;4927710;29;20292;-67
2021/04/10 07:18:37;;;;;;;1.92;1.83;;;10.30;94.20;;;;;;4927848;29;20216;-67
2021/04/10 07:21:14;;;;;;;5.00;2.22;;;10.20;94.50;;;;;;4922619;29;20232;-68
2021/04/10 07:23:46;;;;;;;2.60;2.40;;;10.20;95.00;;;;;;4927073;29;20309;-67
2021/04/10 07:26:13;;;;;;;2.38;2.28;;;10.10;95.30;;;;;;4923366;29;20220;-67
2021/04/10 07:28:39;;;;;;;3.28;2.85;;;10.00;95.70;;;;;;4919915;29;20214;-68
2021/04/10 07:31:08;;;;;;;3.17;2.88;;;10.00;95.80;;;;;;4927654;29;20202;-67
2021/04/10 07:33:36;;;;;;;2.00;1.90;;;10.10;96.20;;;;;;4923962;29;20230;-68
2021/04/10 07:36:05;;;;;;;2.25;2.15;;;10.10;95.80;;;;;;4922767;29;20226;-67
2021/04/10 07:38:33;;;;;;;2.65;2.45;;;10.10;95.10;;;;;;4928716;29;20211;-68
2021/04/10 07:41:01;;;;;;;2.70;2.58;;;10.20;95.60;;;;;;4926256;29;20205;-67
2021/04/10 07:43:30;;;;;;;3.25;2.40;;;10.20;95.70;;;;;;4932538;29;20209;-67
2021/04/10 07:46:15;;;;;;;2.15;1.95;;;10.20;94.80;;;;;;4924598;29;20265;-67
2021/04/10 07:49:06;;;;;;;2.30;2.20;;;10.20;95.00;;;;;;4928728;29;20213;-68
2021/04/10 07:51:34;;;;;;;3.50;2.25;;;10.30;95.20;;;;;;4930098;29;20225;-67
2021/04/10 07:54:01;;;;;;;2.35;2.13;;;10.30;95.20;;;;;;4930530;29;20745;-67
2021/04/10 07:56:51;;;;;;;2.33;2.17;;;10.40;94.50;;;;;;4928960;29;20221;-67
2021/04/10 07:59:18;;;;;;;2.90;2.63;;;10.40;94.70;;;;;;4932107;29;20297;-67
2021/04/10 08:01:45;;;;;;;2.80;2.40;;;10.50;94.40;;;;;;4930105;29;20209;-67
2021/04/10 08:04:13;;;;;;;2.60;2.40;;;10.50;94.60;;;;;;4925048;29;20664;-68
2021/04/10 08:06:53;;;;;;;2.72;2.53;;;10.60;94.20;;;;;;4930870;29;20695;-68
2021/04/10 08:09:31;;;;;;;2.85;2.50;;;10.70;94.60;;;;;;4923510;29;20236;-68
2021/04/10 08:11:58;;;;;;;2.78;2.22;;;10.70;94.50;;;;;;4924462;29;20227;-68
2021/04/10 08:14:24;;;;;;;2.92;2.63;;;10.70;94.30;;;;;;4929044;29;20333;-67
2021/04/10 08:16:53;;;;;;;2.38;1.92;;;10.80;94.60;;;;;;4930524;29;20880;-67
2021/04/10 08:19:29;;;;;;;3.33;2.83;;;10.80;95.10;;;;;;4930938;29;20205;-68
2021/04/10 08:21:56;;;;;;;3.05;2.40;;;11.00;95.90;;;;;;4920981;29;20324;-67
2021/04/10 08:24:27;;;;;;;2.33;2.13;;;11.00;96.20;;;;;;4929894;29;20209;-68
2021/04/10 08:26:55;;;;;;;3.00;2.72;;;11.00;96.80;;;;;;4924189;29;20201;-67
2021/04/10 08:29:23;;;;;;;2.60;2.40;;;11.00;96.60;;;;;;4929837;29;20672;-68
2021/04/10 08:31:52;;;;;;;2.83;2.53;;;11.10;96.90;;;;;;4931124;29;20734;-68
2021/04/10 08:34:18;;;;;;;2.67;2.47;;;11.10;96.50;;;;;;4930582;29;20221;-68
2021/04/10 08:36:53;;;;;;;3.90;2.50;;;11.20;96.50;;;;;;4931110;29;20349;-68
2021/04/10 08:39:23;;;;;;;2.67;2.47;;;11.30;96.50;;;;;;4931119;29;20599;-68
2021/04/10 08:41:55;;;;;;;3.13;2.65;;;11.40;95.70;;;;;;4930388;29;20212;-67
2021/04/10 08:44:25;;;;;;;2.40;2.20;;;11.40;95.60;;;;;;4930030;29;20217;-68
2021/04/10 08:46:52;;;;;;;4.47;2.60;;;11.50;95.30;;;;;;4929461;29;20213;-67
2021/04/10 08:49:20;;;;;;;2.58;2.28;;;11.60;95.20;;;;;;4927085;29;20238;-67
2021/04/10 08:51:50;;;;;;;2.05;1.88;;;11.70;95.10;;;;;;4930521;29;20312;-68
2021/04/10 08:54:18;;;;;;;2.45;2.25;;;11.70;94.60;;;;;;4930779;29;20210;-68
2021/04/10 08:56:50;;;;;;;2.58;2.35;;;11.70;94.10;;;;;;4929824;29;20300;-67
2021/04/10 08:59:18;;;;;;;3.15;2.30;;;11.70;94.30;;;;;;4930353;29;20221;-68
2021/04/10 09:02:05;;;;;;;2.13;2.03;;;11.80;93.70;;;;;;4930354;29;20349;-68
2021/04/10 09:04:58;;;;;;;3.78;2.53;;;11.80;94.20;;;;;;4928215;29;20578;-67
2021/04/10 09:08:03;;;;;;;3.03;2.83;;;11.80;93.50;;;;;;4929422;29;20301;-67
2021/04/10 09:10:58;;;;;;;2.03;1.92;;;11.90;93.50;;;;;;4929975;29;20236;-67
2021/04/10 09:13:33;;;;;;;2.30;2.10;;;12.10;93.50;;;;;;4928951;29;20376;-67
2021/04/10 09:16:33;;;;;;;3.03;2.30;;;12.20;93.40;;;;;;4930545;29;20205;-67
2021/04/10 09:19:02;;;;;;;2.50;2.30;;;12.40;93.10;;;;;;4926510;29;20206;-67
2021/04/10 09:21:37;;;;;;;3.40;2.30;;;12.60;92.60;;;;;;4929609;29;20256;-68
2021/04/10 09:24:25;;;;;;;2.70;2.50;;;12.80;92.20;;;;;;4928185;29;20679;-67
2021/04/10 09:26:56;;;;;;;2.97;2.60;;;12.90;91.20;;;;;;4928692;29;20236;-68
2021/04/10 09:29:23;;;;;;;2.40;2.20;;;13.10;91.80;;;;;;4930344;29;20224;-68
2021/04/10 09:31:55;;;;;;;2.28;2.05;;;13.20;91.50;;;;;;4929857;29;20213;-68
2021/04/10 09:34:49;;;;;;;2.45;2.25;;;13.00;90.80;;;;;;4927474;29;20273;-67
2021/04/10 09:37:59;;;;;;;2.30;2.05;;;12.70;91.40;;;;;;4929225;29;20209;-68
2021/04/10 09:40:49;;;;;;;2.10;2.00;;;12.80;91.80;;;;;;4926293;29;20824;-67
2021/04/10 09:43:18;;;;;;;1.75;1.65;;;12.60;91.30;;;;;;4929909;29;20202;-67
2021/04/10 09:45:44;;;;;;;2.53;1.92;;;12.60;90.80;;;;;;4928005;29;20209;-68
2021/04/10 09:48:35;;;;;;;2.40;2.20;;;12.70;91.50;;;;;;4927950;29;20220;-68
2021/04/10 09:51:15;;;;;;;3.55;2.03;;;12.70;91.40;;;;;;4928584;29;20320;-68
2021/04/10 09:53:52;;;;;;;1.50;1.40;;;12.60;91.00;;;;;;4929497;29;20244;-67
2021/04/10 09:56:20;;;;;;;2.25;1.63;;;12.30;90.40;;;;;;4929121;29;20216;-69
2021/04/10 09:58:50;;;;;;;2.00;1.88;;;12.40;91.40;;;;;;4927845;29;20304;-67
2021/04/10 10:01:19;;;;;;;1.98;1.60;;;12.30;90.50;;;;;;4929761;29;20276;-68
2021/04/10 10:03:47;;;;;;;1.60;1.50;;;12.50;90.70;;;;;;4929232;29;20210;-70
2021/04/10 10:06:30;;;;;;;2.70;1.30;;;12.50;90.70;;;;;;4929793;29;20209;-68
2021/04/10 10:08:56;;;;;;;1.95;1.85;;;12.50;90.20;;;;;;4927948;29;20209;-69
2021/04/10 10:11:24;;;;;;;2.45;1.73;;;12.40;90.10;;;;;;4930068;29;20218;-69
2021/04/10 10:13:50;;;;;;;2.00;1.90;;;12.50;90.60;;;;;;4923951;29;20268;-69
2021/04/10 10:16:30;;;;;;;2.35;1.98;;;12.50;90.50;;;;;;4927915;29;20206;-70
2021/04/10 10:18:57;;;;;;;2.10;1.85;;;12.70;90.50;;;;;;4922287;29;20206;-69
2021/04/10 10:21:24;;;;;;;1.67;1.58;;;12.70;90.50;;;;;;4926247;29;20216;-68
2021/04/10 10:23:52;;;;;;;2.00;1.80;;;12.80;90.20;;;;;;4926486;29;20206;-68
2021/04/10 10:26:21;;;;;;;1.90;1.80;;;12.90;88.70;;;;;;4928040;29;20206;-69
2021/04/10 10:28:51;;;;;;;1.55;1.45;;;12.80;87.40;;;;;;4929651;29;20292;-68
2021/04/10 10:31:20;;;;;;;2.05;1.85;;;12.90;88.70;;;;;;4929857;29;20208;-68
2021/04/10 10:33:46;;;;;;;1.65;1.40;;;13.00;89.10;;;;;;4925894;29;20663;-68
2021/04/10 10:36:15;;;;;;;2.33;1.67;;;13.00;89.40;;;;;;4928342;29;20244;-68
2021/04/10 10:38:43;;;;;;;1.52;1.42;;;12.90;86.80;;;;;;4928152;29;20221;-68
2021/04/10 10:41:12;;;;;;;2.75;2.10;;;12.80;88.00;;;;;;4924545;29;20222;-68
2021/04/10 10:43:39;;;;;;;2.25;1.70;;;12.80;88.40;;;;;;4928647;29;20205;-69
2021/04/10 10:46:07;;;;;;;1.30;1.30;;;12.70;88.30;;;;;;4928320;29;20707;-69
2021/04/10 10:48:36;;;;;;;2.80;1.90;;;12.80;88.90;;;;;;4928697;29;20209;-69
2021/04/10 10:51:06;;;;;;;1.95;1.75;;;12.80;88.60;;;;;;4930481;29;20241;-69
2021/04/10 10:53:35;;;;;;;3.40;1.90;;;12.90;88.10;;;;;;4929137;29;20238;-68
2021/04/10 10:56:07;;;;;;;1.90;1.80;;;12.90;87.20;;;;;;4918497;29;20201;-69
2021/04/10 10:58:36;;;;;;;1.38;1.38;;;12.90;86.90;;;;;;4924315;29;20408;-68
2021/04/10 11:01:07;;;;;;;1.67;1.58;;;13.00;86.50;;;;;;4929200;29;20201;-69
2021/04/10 11:03:34;;;;;;;2.17;1.98;;;13.20;85.90;;;;;;4927719;29;20213;-69
2021/04/10 11:06:01;;;;;;;1.55;1.45;;;13.30;85.70;;;;;;4924298;29;20198;-69
2021/04/10 11:08:28;;;;;;;2.20;2.00;;;13.50;85.90;;;;;;4925813;29;20917;-69
2021/04/10 11:10:54;;;;;;;3.00;2.20;;;13.70;84.60;;;;;;4918854;29;20877;-69
2021/04/10 11:13:23;;;;;;;2.00;1.90;;;14.00;84.70;;;;;;4927225;29;20209;-70
2021/04/10 11:15:51;;;;;;;2.05;1.85;;;14.10;84.90;;;;;;4925182;29;20202;-68
2021/04/10 11:18:28;;;;;;;1.95;1.85;;;14.40;83.90;;;;;;4926587;29;20240;-68
2021/04/10 11:21:18;;;;;;;1.85;1.75;;;14.80;81.70;;;;;;4925560;29;20904;-69
2021/04/10 11:24:12;;;;;;;2.00;1.77;;;15.10;81.50;;;;;;4926055;29;20206;-69
2021/04/10 11:26:50;;;;;;;4.00;2.10;;;15.20;81.70;;;;;;4928296;29;20221;-69
2021/04/10 11:29:31;;;;;;;3.78;2.35;;;15.20;81.10;;;;;;4928090;29;20323;-68
2021/04/10 11:32:26;;;;;;;3.08;2.75;;;15.60;81.30;;;;;;4926438;29;20217;-68
2021/04/10 11:34:58;;;;;;;2.30;2.10;;;15.60;81.30;;;;;;4927273;29;20671;-69
2021/04/10 11:37:40;;;;;;;2.60;2.40;;;15.60;80.50;;;;;;4928785;29;20896;-69
2021/04/10 11:40:08;;;;;;;2.65;2.45;;;15.70;81.80;;;;;;4927191;29;20213;-69
2021/04/10 11:42:37;;;;;;;2.65;2.45;;;15.60;79.20;;;;;;4927490;29;20216;-69
2021/04/10 11:45:06;;;;;;;2.30;2.20;;;15.70;79.60;;;;;;4920857;29;20241;-71
2021/04/10 11:47:33;;;;;;;3.17;2.60;;;16.00;79.50;;;;;;4929131;29;20313;-69
2021/04/10 11:50:12;;;;;;;3.13;2.55;;;16.00;79.90;;;;;;4928158;29;20221;-68
2021/04/10 11:52:40;;;;;;;2.47;2.20;;;16.00;76.60;;;;;;4928283;29;20206;-69
2021/04/10 11:55:10;;;;;;;2.85;2.22;;;15.90;78.00;;;;;;4928252;29;20212;-69
2021/04/10 11:57:38;;;;;;;2.58;2.38;;;15.80;76.70;;;;;;4928567;29;20245;-69
2021/04/10 12:00:15;;;;;;;2.70;2.50;;;15.80;78.50;;;;;;4926270;29;20225;-69
2021/04/10 12:02:43;;;;;;;2.85;2.55;;;15.90;78.10;;;;;;4924248;29;20212;-70
2021/04/10 12:05:24;;;;;;;2.42;1.92;;;16.20;77.30;;;;;;4925508;29;20261;-69
2021/04/10 12:08:08;;;;;;;2.25;2.05;;;16.40;77.20;;;;;;4925554;29;20216;-68
2021/04/10 12:10:36;;;;;;;2.08;1.98;;;16.40;76.00;;;;;;4924491;29;20225;-70
2021/04/10 12:13:02;;;;;;;3.25;2.85;;;16.50;73.90;;;;;;4927048;29;20787;-68
2021/04/10 12:15:31;;;;;;;3.42;3.20;;;16.40;77.00;;;;;;4922732;29;20204;-69
2021/04/10 12:17:57;;;;;;;2.75;2.55;;;16.70;75.30;;;;;;4925542;29;20233;-68
2021/04/10 12:20:24;;;;;;;3.75;3.45;;;17.00;74.10;;;;;;4926097;29;20206;-68
2021/04/10 12:22:51;;;;;;;4.35;3.25;;;16.90;75.10;;;;;;4926261;29;20205;-68
2021/04/10 12:25:19;;;;;;;4.07;3.78;;;16.70;77.60;;;;;;4930137;29;20206;-69
2021/04/10 12:27:46;;;;;;;4.30;3.90;;;16.80;77.10;;;;;;4927320;29;20563;-68
2021/04/10 12:30:13;;;;;;;5.15;4.00;;;16.80;76.60;;;;;;4929781;29;20245;-67
2021/04/10 12:32:40;;;;;;;3.42;3.20;;;16.80;76.40;;;;;;4932617;29;20217;-69
2021/04/10 12:35:07;;;;;;;5.93;3.85;;;17.10;75.80;;;;;;4929648;29;20750;-68
2021/04/10 12:37:34;;;;;;;5.15;4.10;;;17.00;75.60;;;;;;4927656;29;20202;-68
2021/04/10 12:40:00;;;;;;;3.72;3.42;;;16.70;76.20;;;;;;4929863;29;20209;-68
2021/04/10 12:42:27;;;;;;;3.90;3.60;;;16.60;75.70;;;;;;4928329;29;20213;-67
2021/04/10 12:44:53;;;;;;;3.80;3.50;;;16.40;76.30;;;;;;4924782;29;20249;-67
2021/04/10 12:47:21;;;;;;;3.53;3.22;;;16.30;75.20;;;;;;4930738;29;20305;-68
2021/04/10 12:49:48;;;;;;;2.88;2.70;;;16.10;76.40;;;;;;4927521;29;20230;-67
2021/04/10 12:52:15;;;;;;;3.42;3.17;;;16.50;74.30;;;;;;4930233;29;20609;-68
2021/04/10 12:54:41;;;;;;;1.90;1.80;;;16.60;73.60;;;;;;4927848;29;20217;-69
2021/04/10 12:57:08;;;;;;;1.80;1.70;;;16.50;68.70;;;;;;4929848;29;20210;-70
2021/04/10 12:59:36;;;;;;;2.75;2.10;;;16.50;69.00;;;;;;4928648;29;20224;-69
2021/04/10 13:02:02;;;;;;;3.55;2.85;;;16.80;70.10;;;;;;4930215;29;20206;-68